Карточка аэропорта UNBB

Внимание!
Информация на этой странице в стадии наполнения.
Если вы не увидели какой-то информации, или заметили неточность - пожалуйста сообщите нам!
Спасибо!
Команда RU-STAFF
Название аэропортаМихайловка
Название аэропорта (англ.)Mikhaylovka
Превышение837 ft. (255.1 m.)
Координаты53°21.798', 83°32.382'
Высота перехода700m
Эшелон переходаFL050
Коды ответчика5301-5307
Зона ОрВДНовосибирск РПИ (UNNT)
Данные METARUNBB 272100Z 18003MPS 9999 -RA BKN005 BKN040 06/06 Q1006 R24/290150 NOSIG RMK QFE732
Проноз погоды (TAF)UNBB 272000Z 2721/2821 15003G08MPS 6000 BKN003 BKN016CB TEMPO 2721/2803 0150 -SHRA FG BKN002 BKN010CB BECMG 2801/2802 30003G08MPS BECMG 2803/2804 8000 BKN016CB TEMPO 2804/2812 25008G13MPS
NOTAMshow/hide NOTAM
AWOS   TABLE

Информация о ВПП

ВПП Длина ВПП (м.) Покрытие Курс ВПП Частота ILS
062853Асфальтобетон59 
242853Асфальтобетон239108.7

Диспетчерские позиции




Спутниковое изображение